Terminal Aerodrome Forecast
Issued by NWS Sioux Falls, SD

Home | Current Version | Previous Version | Text Only | Print | Product List | Glossary On
Versions: 1 2 3 4 5 6 7 8 9 10 11 12 13 14 15 16 17 18 19 20 21 22 23 24 25
721
FTUS43 KFSD 240650 AAA
TAFFSD
TAF AMD
KFSD 240650Z 2407/2506 03009KT P6SM BKN004 OVC006 WS014/18040KT
     FM241000 12005KT P6SM SCT008 BKN200 WS014/18040KT
     FM241200 16006KT P6SM BKN200 WS014/18040KT
     FM241400 17011KT P6SM SCT250
     FM241800 20013KT P6SM -SHRA BKN080
     FM242300 28008KT 6SM SHRA BKN025
     FM250500 34005KT 5SM SHRA OVC008=

USA.gov is the U.S. government's official web portal to all federal, state and local government web resources and services.